Terminal Aerodrome Forecast
Issued by NWS Charleston, WV

Current Version | Previous Version | Text Only | Print | Product List | Glossary Off
Versions: 1 2 3 4 5 6 7 8 9 10 11 12 13 14 15 16 17 18 19 20 21 22 23 24 25 26 27 28 29

411
FTUS41 KRLX 181720
TAFBKW
TAF
KBKW 181720Z 1818/1918 29012G19KT P6SM BKN060
     FM190200 25011G30KT P6SM BKN040
     FM190500 26013G28KT P6SM -SHRA BKN030
     FM190700 28013G23KT P6SM BKN020 WS003/28010KT
     FM191000 28013G33KT P6SM BKN035 WS005/29020KT
     FM191200 28014G30KT P6SM BKN030=

USA.gov is the U.S. government's official web portal to all federal, state and local government web resources and services.